sensor_id;sensor_type;location;lat;lon;timestamp;pressure;altitude;pressure_sealevel;temperature;humidity
10618;BME280;5356;43.526;26.534;2022-07-03T00:01:23;99409.38;;;23.26;96.93
10618;BME280;5356;43.526;26.534;2022-07-03T00:03:48;99399.69;;;23.20;97.37
10618;BME280;5356;43.526;26.534;2022-07-03T00:06:14;99398.09;;;23.19;97.35
10618;BME280;5356;43.526;26.534;2022-07-03T00:08:39;99398.16;;;23.14;97.84
10618;BME280;5356;43.526;26.534;2022-07-03T00:11:05;99402.81;;;23.13;98.09
10618;BME280;5356;43.526;26.534;2022-07-03T00:13:31;99391.94;;;23.13;97.76
10618;BME280;5356;43.526;26.534;2022-07-03T00:15:57;99390.63;;;23.11;98.15
10618;BME280;5356;43.526;26.534;2022-07-03T00:18:22;99391.22;;;23.07;98.04
10618;BME280;5356;43.526;26.534;2022-07-03T00:20:49;99387.47;;;23.03;98.63
10618;BME280;5356;43.526;26.534;2022-07-03T00:23:18;99382.94;;;22.99;98.75
10618;BME280;5356;43.526;26.534;2022-07-03T00:25:49;99381.66;;;22.91;99.05
10618;BME280;5356;43.526;26.534;2022-07-03T00:28:14;99382.06;;;22.84;99.26
10618;BME280;5356;43.526;26.534;2022-07-03T00:30:45;99380.81;;;22.77;99.86
10618;BME280;5356;43.526;26.534;2022-07-03T00:33:14;99378.69;;;22.74;99.78
10618;BME280;5356;43.526;26.534;2022-07-03T00:35:42;99380.50;;;22.78;99.90
10618;BME280;5356;43.526;26.534;2022-07-03T00:38:10;99375.66;;;22.75;99.82
10618;BME280;5356;43.526;26.534;2022-07-03T00:40:36;99377.78;;;22.78;99.80
10618;BME280;5356;43.526;26.534;2022-07-03T00:43:03;99375.44;;;22.72;100.00
10618;BME280;5356;43.526;26.534;2022-07-03T00:45:33;99375.50;;;22.67;100.00
10618;BME280;5356;43.526;26.534;2022-07-03T00:47:59;99375.00;;;22.64;100.00
10618;BME280;5356;43.526;26.534;2022-07-03T00:50:33;99374.72;;;22.66;100.00
10618;BME280;5356;43.526;26.534;2022-07-03T00:53:01;99359.88;;;22.58;100.00
10618;BME280;5356;43.526;26.534;2022-07-03T00:55:27;99363.41;;;22.59;100.00
10618;BME280;5356;43.526;26.534;2022-07-03T00:57:55;99358.69;;;22.64;100.00
10618;BME280;5356;43.526;26.534;2022-07-03T01:00:21;99354.38;;;22.63;100.00
10618;BME280;5356;43.526;26.534;2022-07-03T01:05:26;99361.59;;;22.54;100.00
10618;BME280;5356;43.526;26.534;2022-07-03T01:10:54;99359.16;;;22.53;100.00
10618;BME280;5356;43.526;26.534;2022-07-03T01:19:06;99365.25;;;22.26;100.00
10618;BME280;5356;43.526;26.534;2022-07-03T01:21:41;99364.72;;;22.24;100.00
10618;BME280;5356;43.526;26.534;2022-07-03T01:27:04;99353.97;;;22.13;100.00
10618;BME280;5356;43.526;26.534;2022-07-03T01:29:43;99346.13;;;22.12;100.00
10618;BME280;5356;43.526;26.534;2022-07-03T01:32:12;99342.09;;;22.09;100.00
10618;BME280;5356;43.526;26.534;2022-07-03T01:34:42;99347.25;;;22.11;100.00
10618;BME280;5356;43.526;26.534;2022-07-03T01:37:09;99350.75;;;22.11;100.00
10618;BME280;5356;43.526;26.534;2022-07-03T01:39:35;99361.38;;;22.08;100.00
10618;BME280;5356;43.526;26.534;2022-07-03T01:42:02;99353.38;;;21.97;100.00
10618;BME280;5356;43.526;26.534;2022-07-03T01:44:28;99365.09;;;21.93;100.00
10618;BME280;5356;43.526;26.534;2022-07-03T01:46:57;99370.88;;;21.86;100.00
10618;BME280;5356;43.526;26.534;2022-07-03T01:49:26;99363.66;;;21.77;100.00
10618;BME280;5356;43.526;26.534;2022-07-03T01:51:53;99376.81;;;21.64;100.00
10618;BME280;5356;43.526;26.534;2022-07-03T01:54:19;99371.19;;;21.61;100.00
10618;BME280;5356;43.526;26.534;2022-07-03T01:56:46;99367.59;;;21.65;100.00
10618;BME280;5356;43.526;26.534;2022-07-03T01:59:11;99362.41;;;21.69;100.00
10618;BME280;5356;43.526;26.534;2022-07-03T02:01:45;99373.66;;;21.81;100.00
10618;BME280;5356;43.526;26.534;2022-07-03T02:07:08;99370.00;;;21.91;100.00
10618;BME280;5356;43.526;26.534;2022-07-03T02:09:44;99367.75;;;21.98;100.00
10618;BME280;5356;43.526;26.534;2022-07-03T02:12:13;99367.69;;;22.03;100.00
10618;BME280;5356;43.526;26.534;2022-07-03T02:14:40;99366.81;;;22.08;100.00
10618;BME280;5356;43.526;26.534;2022-07-03T02:17:20;99370.47;;;21.98;100.00
10618;BME280;5356;43.526;26.534;2022-07-03T02:19:56;99370.25;;;21.94;100.00
10618;BME280;5356;43.526;26.534;2022-07-03T02:22:44;99377.75;;;21.79;100.00
10618;BME280;5356;43.526;26.534;2022-07-03T02:25:26;99372.78;;;21.62;100.00
10618;BME280;5356;43.526;26.534;2022-07-03T02:30:42;99362.63;;;21.72;100.00
10618;BME280;5356;43.526;26.534;2022-07-03T02:33:09;99366.19;;;21.68;100.00
10618;BME280;5356;43.526;26.534;2022-07-03T02:35:36;99361.94;;;21.62;100.00
10618;BME280;5356;43.526;26.534;2022-07-03T02:38:18;99359.53;;;21.60;100.00
10618;BME280;5356;43.526;26.534;2022-07-03T02:40:50;99354.56;;;21.67;100.00
10618;BME280;5356;43.526;26.534;2022-07-03T02:51:41;99372.16;;;21.46;100.00
10618;BME280;5356;43.526;26.534;2022-07-03T02:54:13;99375.50;;;21.33;100.00
10618;BME280;5356;43.526;26.534;2022-07-03T02:57:07;99379.34;;;21.26;100.00
10618;BME280;5356;43.526;26.534;2022-07-03T02:59:54;99379.34;;;21.26;100.00
10618;BME280;5356;43.526;26.534;2022-07-03T03:05:01;99381.56;;;21.19;100.00
10618;BME280;5356;43.526;26.534;2022-07-03T03:07:33;99379.09;;;21.23;100.00
10618;BME280;5356;43.526;26.534;2022-07-03T03:09:59;99379.41;;;21.21;100.00
10618;BME280;5356;43.526;26.534;2022-07-03T03:12:37;99389.47;;;21.16;100.00
10618;BME280;5356;43.526;26.534;2022-07-03T03:15:04;99390.09;;;21.07;100.00
10618;BME280;5356;43.526;26.534;2022-07-03T03:17:41;99379.50;;;21.06;100.00
10618;BME280;5356;43.526;26.534;2022-07-03T03:20:08;99387.09;;;21.09;100.00
10618;BME280;5356;43.526;26.534;2022-07-03T03:23:08;99379.47;;;21.11;100.00
10618;BME280;5356;43.526;26.534;2022-07-03T03:25:35;99387.13;;;21.04;100.00
10618;BME280;5356;43.526;26.534;2022-07-03T03:28:01;99387.91;;;21.10;100.00
10618;BME280;5356;43.526;26.534;2022-07-03T03:30:27;99377.88;;;21.10;100.00
10618;BME280;5356;43.526;26.534;2022-07-03T03:32:52;99388.41;;;21.12;100.00
10618;BME280;5356;43.526;26.534;2022-07-03T03:35:18;99380.84;;;21.08;100.00
10618;BME280;5356;43.526;26.534;2022-07-03T03:37:45;99387.09;;;21.09;100.00
10618;BME280;5356;43.526;26.534;2022-07-03T03:40:11;99375.78;;;21.02;100.00
10618;BME280;5356;43.526;26.534;2022-07-03T03:42:37;99380.72;;;20.95;100.00
10618;BME280;5356;43.526;26.534;2022-07-03T03:45:03;99388.59;;;20.91;100.00
10618;BME280;5356;43.526;26.534;2022-07-03T03:47:29;99393.44;;;20.94;100.00
10618;BME280;5356;43.526;26.534;2022-07-03T03:49:55;99388.78;;;21.00;100.00
10618;BME280;5356;43.526;26.534;2022-07-03T03:52:20;99391.25;;;20.96;100.00
10618;BME280;5356;43.526;26.534;2022-07-03T03:54:46;99393.69;;;20.98;100.00
10618;BME280;5356;43.526;26.534;2022-07-03T03:57:23;99396.41;;;20.98;100.00
10618;BME280;5356;43.526;26.534;2022-07-03T03:59:49;99397.97;;;21.04;100.00
10618;BME280;5356;43.526;26.534;2022-07-03T04:02:15;99407.72;;;21.05;100.00
10618;BME280;5356;43.526;26.534;2022-07-03T04:04:40;99403.66;;;21.02;100.00
10618;BME280;5356;43.526;26.534;2022-07-03T04:07:06;99403.63;;;21.07;100.00
10618;BME280;5356;43.526;26.534;2022-07-03T04:09:32;99400.13;;;21.07;100.00
10618;BME280;5356;43.526;26.534;2022-07-03T04:11:57;99398.91;;;21.23;100.00
10618;BME280;5356;43.526;26.534;2022-07-03T04:14:23;99402.59;;;21.33;100.00
10618;BME280;5356;43.526;26.534;2022-07-03T04:16:49;99404.16;;;21.44;100.00
10618;BME280;5356;43.526;26.534;2022-07-03T04:19:14;99401.63;;;21.52;100.00
10618;BME280;5356;43.526;26.534;2022-07-03T04:21:40;99399.66;;;21.58;100.00
10618;BME280;5356;43.526;26.534;2022-07-03T04:24:05;99404.47;;;21.66;100.00
10618;BME280;5356;43.526;26.534;2022-07-03T04:26:31;99407.19;;;21.66;100.00
10618;BME280;5356;43.526;26.534;2022-07-03T04:28:57;99399.56;;;21.68;100.00
10618;BME280;5356;43.526;26.534;2022-07-03T04:31:22;99404.06;;;21.78;100.00
10618;BME280;5356;43.526;26.534;2022-07-03T04:33:48;99399.09;;;21.85;100.00
10618;BME280;5356;43.526;26.534;2022-07-03T04:36:14;99399.50;;;21.97;100.00
10618;BME280;5356;43.526;26.534;2022-07-03T04:38:39;99397.22;;;22.05;100.00
10618;BME280;5356;43.526;26.534;2022-07-03T04:41:05;99399.66;;;22.06;100.00
10618;BME280;5356;43.526;26.534;2022-07-03T04:43:30;99400.41;;;22.12;100.00
10618;BME280;5356;43.526;26.534;2022-07-03T04:45:56;99393.84;;;22.18;100.00
10618;BME280;5356;43.526;26.534;2022-07-03T04:48:21;99397.25;;;22.29;100.00
10618;BME280;5356;43.526;26.534;2022-07-03T04:50:47;99398.72;;;22.40;100.00
10618;BME280;5356;43.526;26.534;2022-07-03T04:53:12;99399.00;;;22.57;100.00
10618;BME280;5356;43.526;26.534;2022-07-03T04:55:38;99401.50;;;22.73;100.00
10618;BME280;5356;43.526;26.534;2022-07-03T04:58:03;99399.50;;;22.78;100.00
10618;BME280;5356;43.526;26.534;2022-07-03T05:00:29;99407.72;;;22.92;100.00
10618;BME280;5356;43.526;26.534;2022-07-03T05:02:54;99400.38;;;22.93;100.00
10618;BME280;5356;43.526;26.534;2022-07-03T05:05:20;99398.25;;;23.08;100.00
10618;BME280;5356;43.526;26.534;2022-07-03T05:07:46;99402.50;;;23.15;100.00
10618;BME280;5356;43.526;26.534;2022-07-03T05:10:12;99394.19;;;23.25;100.00
10618;BME280;5356;43.526;26.534;2022-07-03T05:12:37;99399.53;;;23.30;100.00
10618;BME280;5356;43.526;26.534;2022-07-03T05:15:03;99395.81;;;23.40;100.00
10618;BME280;5356;43.526;26.534;2022-07-03T05:17:29;99403.69;;;23.41;100.00
10618;BME280;5356;43.526;26.534;2022-07-03T05:19:54;99405.13;;;23.52;100.00
10618;BME280;5356;43.526;26.534;2022-07-03T05:22:38;99403.00;;;23.63;100.00
10618;BME280;5356;43.526;26.534;2022-07-03T05:25:05;99413.91;;;23.77;100.00
10618;BME280;5356;43.526;26.534;2022-07-03T05:27:30;99410.09;;;23.92;100.00
10618;BME280;5356;43.526;26.534;2022-07-03T05:29:56;99410.06;;;24.06;100.00
10618;BME280;5356;43.526;26.534;2022-07-03T05:32:21;99403.81;;;24.19;100.00
10618;BME280;5356;43.526;26.534;2022-07-03T05:34:47;99413.91;;;24.32;100.00
10618;BME280;5356;43.526;26.534;2022-07-03T05:37:12;99410.69;;;24.44;100.00
10618;BME280;5356;43.526;26.534;2022-07-03T05:39:38;99404.31;;;24.49;100.00
10618;BME280;5356;43.526;26.534;2022-07-03T05:42:04;99407.81;;;24.63;100.00
10618;BME280;5356;43.526;26.534;2022-07-03T05:44:30;99415.44;;;24.75;100.00
10618;BME280;5356;43.526;26.534;2022-07-03T05:46:55;99417.59;;;24.86;100.00
10618;BME280;5356;43.526;26.534;2022-07-03T05:49:21;99418.19;;;24.97;100.00
10618;BME280;5356;43.526;26.534;2022-07-03T05:51:47;99407.44;;;25.01;100.00
10618;BME280;5356;43.526;26.534;2022-07-03T05:54:14;99401.16;;;25.14;100.00
10618;BME280;5356;43.526;26.534;2022-07-03T05:56:39;99404.13;;;25.26;100.00
10618;BME280;5356;43.526;26.534;2022-07-03T05:59:05;99407.06;;;25.39;100.00
10618;BME280;5356;43.526;26.534;2022-07-03T06:01:30;99402.78;;;25.46;100.00
10618;BME280;5356;43.526;26.534;2022-07-03T06:03:57;99410.38;;;25.58;100.00
10618;BME280;5356;43.526;26.534;2022-07-03T06:06:23;99414.44;;;25.69;99.24
10618;BME280;5356;43.526;26.534;2022-07-03T06:08:48;99411.28;;;25.76;99.23
10618;BME280;5356;43.526;26.534;2022-07-03T06:11:14;99410.31;;;25.81;98.18
10618;BME280;5356;43.526;26.534;2022-07-03T06:13:39;99414.91;;;25.94;97.21
10618;BME280;5356;43.526;26.534;2022-07-03T06:16:05;99412.50;;;26.01;96.91
10618;BME280;5356;43.526;26.534;2022-07-03T06:18:30;99417.31;;;26.04;95.88
10618;BME280;5356;43.526;26.534;2022-07-03T06:20:56;99415.09;;;26.15;95.32
10618;BME280;5356;43.526;26.534;2022-07-03T06:23:25;99412.25;;;26.29;95.04
10618;BME280;5356;43.526;26.534;2022-07-03T06:25:53;99418.38;;;26.43;93.96
10618;BME280;5356;43.526;26.534;2022-07-03T06:28:19;99416.97;;;26.54;92.56
10618;BME280;5356;43.526;26.534;2022-07-03T06:30:44;99414.72;;;26.65;91.51
10618;BME280;5356;43.526;26.534;2022-07-03T06:33:10;99411.50;;;26.72;91.45
10618;BME280;5356;43.526;26.534;2022-07-03T06:35:35;99414.88;;;26.77;90.73
10618;BME280;5356;43.526;26.534;2022-07-03T06:38:02;99413.13;;;26.81;89.06
10618;BME280;5356;43.526;26.534;2022-07-03T06:40:28;99419.88;;;26.93;89.21
10618;BME280;5356;43.526;26.534;2022-07-03T06:42:53;99417.28;;;26.96;88.17
10618;BME280;5356;43.526;26.534;2022-07-03T06:45:18;99426.13;;;27.02;86.60
10618;BME280;5356;43.526;26.534;2022-07-03T06:47:44;99412.75;;;27.09;85.65
10618;BME280;5356;43.526;26.534;2022-07-03T06:50:09;99419.88;;;27.19;83.10
10618;BME280;5356;43.526;26.534;2022-07-03T06:52:35;99420.34;;;27.29;81.08
10618;BME280;5356;43.526;26.534;2022-07-03T06:55:00;99421.44;;;27.37;79.68
10618;BME280;5356;43.526;26.534;2022-07-03T06:57:26;99414.31;;;27.53;78.93
10618;BME280;5356;43.526;26.534;2022-07-03T06:59:52;99416.69;;;27.64;78.32
10618;BME280;5356;43.526;26.534;2022-07-03T07:02:17;99417.19;;;27.66;76.29
10618;BME280;5356;43.526;26.534;2022-07-03T07:04:42;99418.25;;;27.73;76.44
10618;BME280;5356;43.526;26.534;2022-07-03T07:07:08;99413.25;;;27.84;76.32
10618;BME280;5356;43.526;26.534;2022-07-03T07:09:34;99422.03;;;27.98;76.48
10618;BME280;5356;43.526;26.534;2022-07-03T07:11:59;99415.53;;;28.12;75.40
10618;BME280;5356;43.526;26.534;2022-07-03T07:14:24;99426.09;;;28.22;74.81
10618;BME280;5356;43.526;26.534;2022-07-03T07:16:50;99416.75;;;28.23;76.24
10618;BME280;5356;43.526;26.534;2022-07-03T07:19:16;99421.16;;;28.36;75.00
10618;BME280;5356;43.526;26.534;2022-07-03T07:21:41;99416.13;;;28.47;73.02
10618;BME280;5356;43.526;26.534;2022-07-03T07:24:07;99423.84;;;28.54;71.45
10618;BME280;5356;43.526;26.534;2022-07-03T07:26:32;99432.31;;;28.61;70.12
10618;BME280;5356;43.526;26.534;2022-07-03T07:28:58;99420.00;;;28.67;70.65
10618;BME280;5356;43.526;26.534;2022-07-03T07:31:23;99419.75;;;28.81;71.75
10618;BME280;5356;43.526;26.534;2022-07-03T07:33:49;99414.19;;;28.90;70.80
10618;BME280;5356;43.526;26.534;2022-07-03T07:36:14;99417.94;;;29.06;70.25
10618;BME280;5356;43.526;26.534;2022-07-03T07:38:40;99419.44;;;29.16;68.37
10618;BME280;5356;43.526;26.534;2022-07-03T07:41:05;99418.44;;;29.20;66.84
10618;BME280;5356;43.526;26.534;2022-07-03T07:43:31;99423.94;;;29.20;68.20
10618;BME280;5356;43.526;26.534;2022-07-03T07:45:56;99419.03;;;29.26;68.02
10618;BME280;5356;43.526;26.534;2022-07-03T07:48:22;99417.81;;;29.36;66.89
10618;BME280;5356;43.526;26.534;2022-07-03T07:50:47;99428.34;;;29.46;66.48
10618;BME280;5356;43.526;26.534;2022-07-03T07:53:15;99427.84;;;29.65;65.88
10618;BME280;5356;43.526;26.534;2022-07-03T07:55:40;99430.69;;;29.68;62.93
10618;BME280;5356;43.526;26.534;2022-07-03T07:58:06;99423.16;;;29.77;61.22
10618;BME280;5356;43.526;26.534;2022-07-03T08:00:32;99419.50;;;29.86;60.17
10618;BME280;5356;43.526;26.534;2022-07-03T08:02:57;99419.38;;;29.94;58.84
10618;BME280;5356;43.526;26.534;2022-07-03T08:05:41;99418.94;;;29.92;55.52
10618;BME280;5356;43.526;26.534;2022-07-03T08:08:17;99427.28;;;29.96;55.94
10618;BME280;5356;43.526;26.534;2022-07-03T08:10:47;99424.66;;;29.99;55.17
10618;BME280;5356;43.526;26.534;2022-07-03T08:13:15;99433.13;;;29.94;54.16
10618;BME280;5356;43.526;26.534;2022-07-03T08:15:41;99433.44;;;29.81;54.53
10618;BME280;5356;43.526;26.534;2022-07-03T08:18:07;99433.13;;;29.94;54.55
10618;BME280;5356;43.526;26.534;2022-07-03T08:20:33;99436.69;;;30.07;54.53
10618;BME280;5356;43.526;26.534;2022-07-03T08:22:59;99435.78;;;30.28;52.91
10618;BME280;5356;43.526;26.534;2022-07-03T08:25:25;99435.78;;;30.28;51.40
10618;BME280;5356;43.526;26.534;2022-07-03T08:27:51;99438.84;;;30.26;50.91
10618;BME280;5356;43.526;26.534;2022-07-03T08:30:17;99438.28;;;30.33;50.88
10618;BME280;5356;43.526;26.534;2022-07-03T08:32:47;99444.69;;;30.49;49.64
10618;BME280;5356;43.526;26.534;2022-07-03T08:35:13;99439.97;;;30.37;48.79
10618;BME280;5356;43.526;26.534;2022-07-03T08:37:39;99446.03;;;30.43;49.18
10618;BME280;5356;43.526;26.534;2022-07-03T08:40:13;99448.78;;;30.43;50.33
10618;BME280;5356;43.526;26.534;2022-07-03T08:42:45;99442.16;;;30.44;50.76
10618;BME280;5356;43.526;26.534;2022-07-03T08:45:16;99443.56;;;30.38;50.53
10618;BME280;5356;43.526;26.534;2022-07-03T08:47:43;99442.78;;;30.65;50.59
10618;BME280;5356;43.526;26.534;2022-07-03T08:50:11;99441.41;;;30.84;49.90
10618;BME280;5356;43.526;26.534;2022-07-03T08:52:38;99439.69;;;30.79;49.97
10618;BME280;5356;43.526;26.534;2022-07-03T08:55:04;99438.25;;;30.98;50.21
10618;BME280;5356;43.526;26.534;2022-07-03T08:57:33;99450.53;;;31.00;50.23
10618;BME280;5356;43.526;26.534;2022-07-03T09:00:06;99439.00;;;31.10;50.23
10618;BME280;5356;43.526;26.534;2022-07-03T09:02:32;99439.75;;;31.23;49.98
10618;BME280;5356;43.526;26.534;2022-07-03T09:04:59;99443.22;;;31.20;49.27
10618;BME280;5356;43.526;26.534;2022-07-03T09:07:31;99432.69;;;31.38;49.44
10618;BME280;5356;43.526;26.534;2022-07-03T09:09:59;99440.88;;;31.50;49.62
10618;BME280;5356;43.526;26.534;2022-07-03T09:12:25;99442.91;;;31.53;48.97
10618;BME280;5356;43.526;26.534;2022-07-03T09:14:51;99430.31;;;31.52;47.99
10618;BME280;5356;43.526;26.534;2022-07-03T09:17:17;99439.66;;;31.64;48.59
10618;BME280;5356;43.526;26.534;2022-07-03T09:19:47;99438.22;;;31.70;47.92
10618;BME280;5356;43.526;26.534;2022-07-03T09:22:30;99435.56;;;31.89;47.58
10618;BME280;5356;43.526;26.534;2022-07-03T09:25:10;99433.03;;;31.96;46.63
10618;BME280;5356;43.526;26.534;2022-07-03T09:27:37;99438.31;;;31.89;46.57
10618;BME280;5356;43.526;26.534;2022-07-03T09:32:40;99427.56;;;32.16;45.79
10618;BME280;5356;43.526;26.534;2022-07-03T09:35:26;99429.63;;;32.38;44.61
10618;BME280;5356;43.526;26.534;2022-07-03T09:40:18;99427.66;;;32.55;44.17
10618;BME280;5356;43.526;26.534;2022-07-03T09:43:07;99433.84;;;32.68;44.09
10618;BME280;5356;43.526;26.534;2022-07-03T09:45:52;99425.06;;;32.81;43.88
10618;BME280;5356;43.526;26.534;2022-07-03T09:48:32;99428.72;;;33.05;43.22
10618;BME280;5356;43.526;26.534;2022-07-03T09:53:46;99427.41;;;33.18;41.93
10618;BME280;5356;43.526;26.534;2022-07-03T09:56:12;99438.50;;;33.22;41.46
10618;BME280;5356;43.526;26.534;2022-07-03T09:58:38;99433.09;;;33.29;41.55
10618;BME280;5356;43.526;26.534;2022-07-03T10:01:19;99426.03;;;33.31;41.57
10618;BME280;5356;43.526;26.534;2022-07-03T10:03:47;99415.81;;;33.32;41.06
10618;BME280;5356;43.526;26.534;2022-07-03T10:06:13;99416.53;;;33.29;41.30
10618;BME280;5356;43.526;26.534;2022-07-03T10:08:39;99412.97;;;33.28;40.28
10618;BME280;5356;43.526;26.534;2022-07-03T10:11:04;99416.84;;;33.24;40.81
10618;BME280;5356;43.526;26.534;2022-07-03T10:13:32;99418.00;;;33.23;40.83
10618;BME280;5356;43.526;26.534;2022-07-03T10:15:58;99409.41;;;33.28;40.62
10618;BME280;5356;43.526;26.534;2022-07-03T10:18:29;99407.03;;;33.26;40.72
10618;BME280;5356;43.526;26.534;2022-07-03T10:20:57;99400.88;;;33.14;40.42
10618;BME280;5356;43.526;26.534;2022-07-03T10:23:23;99394.38;;;33.25;41.74
10618;BME280;5356;43.526;26.534;2022-07-03T10:25:49;99390.56;;;33.34;41.37
10618;BME280;5356;43.526;26.534;2022-07-03T10:28:17;99385.88;;;33.57;41.20
10618;BME280;5356;43.526;26.534;2022-07-03T10:30:45;99386.22;;;33.79;41.23
10618;BME280;5356;43.526;26.534;2022-07-03T10:33:11;99391.53;;;33.91;40.67
10618;BME280;5356;43.526;26.534;2022-07-03T10:35:57;99381.97;;;33.85;40.65
10618;BME280;5356;43.526;26.534;2022-07-03T10:38:41;99379.41;;;33.72;41.11
10618;BME280;5356;43.526;26.534;2022-07-03T10:41:34;99368.31;;;33.95;41.05
10618;BME280;5356;43.526;26.534;2022-07-03T10:44:19;99371.81;;;34.19;41.24
10618;BME280;5356;43.526;26.534;2022-07-03T10:47:03;99356.94;;;34.27;40.59
10618;BME280;5356;43.526;26.534;2022-07-03T10:49:29;99358.94;;;34.30;40.81
10618;BME280;5356;43.526;26.534;2022-07-03T10:52:03;99357.22;;;34.18;40.15
10618;BME280;5356;43.526;26.534;2022-07-03T10:54:30;99357.53;;;33.87;40.39
10618;BME280;5356;43.526;26.534;2022-07-03T10:57:16;99351.50;;;33.81;40.77
10618;BME280;5356;43.526;26.534;2022-07-03T11:07:22;99351.03;;;33.75;40.74
10618;BME280;5356;43.526;26.534;2022-07-03T11:15:45;99343.63;;;34.06;42.27
10618;BME280;5356;43.526;26.534;2022-07-03T11:18:30;99336.91;;;33.81;41.74
10618;BME280;5356;43.526;26.534;2022-07-03T11:21:19;99346.03;;;33.85;42.20
10618;BME280;5356;43.526;26.534;2022-07-03T11:26:22;99342.25;;;33.96;41.74
10618;BME280;5356;43.526;26.534;2022-07-03T11:31:17;99346.50;;;33.90;41.64
10618;BME280;5356;43.526;26.534;2022-07-03T11:34:00;99330.09;;;34.01;42.29
10618;BME280;5356;43.526;26.534;2022-07-03T11:36:30;99334.44;;;34.02;42.62
10618;BME280;5356;43.526;26.534;2022-07-03T11:41:30;99332.38;;;33.95;42.83
10618;BME280;5356;43.526;26.534;2022-07-03T11:44:01;99332.25;;;34.11;42.13
10618;BME280;5356;43.526;26.534;2022-07-03T11:46:28;99334.75;;;33.97;42.19
10618;BME280;5356;43.526;26.534;2022-07-03T11:51:36;99318.91;;;33.94;42.60
10618;BME280;5356;43.526;26.534;2022-07-03T11:54:02;99325.19;;;33.91;42.56
10618;BME280;5356;43.526;26.534;2022-07-03T11:56:27;99319.13;;;34.08;42.43
10618;BME280;5356;43.526;26.534;2022-07-03T11:58:58;99314.94;;;34.18;42.62
10618;BME280;5356;43.526;26.534;2022-07-03T12:06:56;99307.72;;;34.10;42.86
10618;BME280;5356;43.526;26.534;2022-07-03T12:09:31;99303.31;;;34.39;42.73
10618;BME280;5356;43.526;26.534;2022-07-03T12:17:05;99296.41;;;34.93;41.96
10618;BME280;5356;43.526;26.534;2022-07-03T12:19:31;99294.53;;;35.04;41.54
10618;BME280;5356;43.526;26.534;2022-07-03T12:21:56;99285.84;;;35.02;41.15
10618;BME280;5356;43.526;26.534;2022-07-03T12:24:22;99291.72;;;34.97;40.82
10618;BME280;5356;43.526;26.534;2022-07-03T12:26:48;99287.88;;;35.09;41.18
10618;BME280;5356;43.526;26.534;2022-07-03T12:29:15;99288.44;;;35.29;40.66
10618;BME280;5356;43.526;26.534;2022-07-03T12:31:48;99281.97;;;35.59;40.05
10618;BME280;5356;43.526;26.534;2022-07-03T12:34:14;99280.00;;;35.63;40.35
10618;BME280;5356;43.526;26.534;2022-07-03T12:36:55;99285.31;;;35.89;39.91
10618;BME280;5356;43.526;26.534;2022-07-03T12:39:21;99292.31;;;35.65;40.29
10618;BME280;5356;43.526;26.534;2022-07-03T12:41:46;99279.94;;;35.56;39.69
10618;BME280;5356;43.526;26.534;2022-07-03T12:44:12;99284.25;;;35.49;38.96
10618;BME280;5356;43.526;26.534;2022-07-03T12:46:43;99273.13;;;35.42;39.02
10618;BME280;5356;43.526;26.534;2022-07-03T12:49:10;99271.28;;;35.13;38.63
10618;BME280;5356;43.526;26.534;2022-07-03T12:51:46;99280.16;;;34.88;39.25
10618;BME280;5356;43.526;26.534;2022-07-03T12:54:15;99276.75;;;35.02;39.06
10618;BME280;5356;43.526;26.534;2022-07-03T12:56:44;99274.50;;;34.74;39.34
10618;BME280;5356;43.526;26.534;2022-07-03T12:59:26;99269.75;;;34.74;39.01
10618;BME280;5356;43.526;26.534;2022-07-03T13:02:05;99265.72;;;35.09;38.43
10618;BME280;5356;43.526;26.534;2022-07-03T13:04:37;99267.50;;;35.35;38.13
10618;BME280;5356;43.526;26.534;2022-07-03T13:07:05;99269.19;;;35.47;37.74
10618;BME280;5356;43.526;26.534;2022-07-03T13:09:32;99255.75;;;35.52;37.84
10618;BME280;5356;43.526;26.534;2022-07-03T13:11:57;99262.28;;;35.78;37.39
10618;BME280;5356;43.526;26.534;2022-07-03T13:14:23;99257.22;;;35.98;37.25
10618;BME280;5356;43.526;26.534;2022-07-03T13:16:54;99253.34;;;36.10;36.18
10618;BME280;5356;43.526;26.534;2022-07-03T13:19:27;99260.03;;;36.02;36.67
10618;BME280;5356;43.526;26.534;2022-07-03T13:21:55;99253.63;;;35.90;37.19
10618;BME280;5356;43.526;26.534;2022-07-03T13:24:22;99249.81;;;36.16;36.25
10618;BME280;5356;43.526;26.534;2022-07-03T13:26:48;99259.97;;;35.94;36.71
10618;BME280;5356;43.526;26.534;2022-07-03T13:29:15;99243.19;;;35.59;36.87
10618;BME280;5356;43.526;26.534;2022-07-03T13:31:40;99240.19;;;35.96;36.65
10618;BME280;5356;43.526;26.534;2022-07-03T13:34:06;99255.66;;;36.01;36.98
10618;BME280;5356;43.526;26.534;2022-07-03T13:36:32;99252.78;;;35.83;37.02
10618;BME280;5356;43.526;26.534;2022-07-03T13:38:59;99243.09;;;35.51;36.89
10618;BME280;5356;43.526;26.534;2022-07-03T13:41:25;99236.59;;;35.26;37.49
10618;BME280;5356;43.526;26.534;2022-07-03T13:43:51;99238.47;;;35.15;37.85
10618;BME280;5356;43.526;26.534;2022-07-03T13:46:17;99237.03;;;35.35;37.47
10618;BME280;5356;43.526;26.534;2022-07-03T13:48:43;99233.91;;;35.40;37.36
10618;BME280;5356;43.526;26.534;2022-07-03T13:51:09;99235.56;;;35.52;37.68
10618;BME280;5356;43.526;26.534;2022-07-03T13:53:35;99232.28;;;35.36;37.85
10618;BME280;5356;43.526;26.534;2022-07-03T13:56:01;99221.28;;;35.46;37.94
10618;BME280;5356;43.526;26.534;2022-07-03T13:58:27;99225.69;;;35.54;37.49
10618;BME280;5356;43.526;26.534;2022-07-03T14:00:53;99216.88;;;35.38;37.70
10618;BME280;5356;43.526;26.534;2022-07-03T14:03:19;99221.03;;;35.66;37.31
10618;BME280;5356;43.526;26.534;2022-07-03T14:05:44;99228.25;;;35.85;37.17
10618;BME280;5356;43.526;26.534;2022-07-03T14:08:10;99220.06;;;36.17;37.23
10618;BME280;5356;43.526;26.534;2022-07-03T14:10:37;99230.75;;;36.08;37.04
10618;BME280;5356;43.526;26.534;2022-07-03T14:13:03;99225.41;;;35.70;37.17
10618;BME280;5356;43.526;26.534;2022-07-03T14:15:28;99229.91;;;35.30;37.69
10618;BME280;5356;43.526;26.534;2022-07-03T14:17:54;99223.69;;;34.96;37.93